Time;durP1;ratioP1;P1;durP2;ratioP2;P2;SDS_P1;SDS_P2;PMS_P1;PMS_P2;Temp;Humidity;BMP_temperature;BMP_pressure;BME280_temperature;BME280_humidity;BME280_pressure;Samples;Min_cycle;Max_cycle;Signal;HPM_P1;HPM_P2
2022/05/14 00:00:53;;;;;;;11.38;4.13;;;;;;;12.44;71.42;101969.63;5094966;28;20039;-65
2022/05/14 00:03:19;;;;;;;10.50;4.50;;;;;;;12.43;71.81;101962.63;5095993;28;20032;-65
2022/05/14 00:05:45;;;;;;;12.27;4.80;;;;;;;12.46;71.75;101963.50;5095550;28;20396;-65
2022/05/14 00:08:12;;;;;;;8.43;4.10;;;;;;;12.35;72.32;101962.66;5095413;28;20495;-65
2022/05/14 00:13:23;;;;;;;12.43;4.10;;;;;;;12.33;72.01;101958.28;5095195;28;20073;-66
2022/05/14 00:15:50;;;;;;;12.88;4.40;;;;;;;12.32;72.41;101960.03;5095263;28;20343;-65
2022/05/14 00:18:15;;;;;;;10.13;4.22;;;;;;;12.32;72.39;101965.28;5095335;28;20028;-65
2022/05/14 00:20:41;;;;;;;10.65;4.10;;;;;;;12.29;72.73;101962.69;5095340;28;20039;-66
2022/05/14 00:23:07;;;;;;;11.18;4.60;;;;;;;12.22;72.88;101960.06;5095040;28;20102;-66
2022/05/14 00:25:33;;;;;;;12.02;4.93;;;;;;;12.13;73.10;101959.19;5095672;28;20453;-65
2022/05/14 00:27:59;;;;;;;16.35;4.88;;;;;;;12.09;73.40;101957.47;5095105;28;20032;-65
2022/05/14 00:30:27;;;;;;;11.85;4.75;;;;;;;12.16;73.79;101956.56;5095274;28;20059;-66
2022/05/14 00:32:53;;;;;;;15.05;5.32;;;;;;;12.09;73.44;101960.09;5095218;28;20047;-65
2022/05/14 00:35:20;;;;;;;11.25;5.20;;;;;;;12.04;74.51;101948.72;5095091;28;20077;-65
2022/05/14 00:37:45;;;;;;;13.80;4.97;;;;;;;12.09;74.21;101953.97;5094987;28;20032;-66
2022/05/14 00:40:22;;;;;;;14.82;5.72;;;;;;;12.05;73.62;101946.97;5094959;28;20359;-65
2022/05/14 00:42:48;;;;;;;10.50;5.05;;;;;;;12.06;74.16;101943.47;5094874;28;20040;-65
2022/05/14 00:45:15;;;;;;;13.50;4.68;;;;;;;12.03;74.65;101952.22;5095248;28;20119;-65
2022/05/14 00:47:42;;;;;;;12.13;5.10;;;;;;;12.05;74.21;101957.47;5095004;28;20024;-65
2022/05/14 00:50:46;;;;;;;11.45;4.95;;;;;;;12.02;73.65;101953.09;5095369;28;20032;-66
2022/05/14 00:53:14;;;;;;;10.32;4.95;;;;;;;12.01;74.21;101945.22;5094376;28;20092;-66
2022/05/14 00:55:41;;;;;;;11.48;5.20;;;;;;;11.89;74.12;101948.75;5095025;28;20036;-66
2022/05/14 00:58:11;;;;;;;14.75;5.28;;;;;;;11.88;75.05;101956.63;5095118;28;20427;-65
2022/05/14 01:00:37;;;;;;;13.48;5.22;;;;;;;11.84;74.77;101953.13;5094750;28;20362;-65
2022/05/14 01:03:03;;;;;;;10.93;5.38;;;;;;;11.80;74.77;101954.00;5094804;28;20032;-65
2022/05/14 01:05:28;;;;;;;15.50;5.30;;;;;;;11.77;75.24;101943.53;5094581;28;20036;-65
2022/05/14 01:07:55;;;;;;;10.13;5.00;;;;;;;11.71;75.10;101956.59;5095033;28;20028;-66
2022/05/14 01:10:26;;;;;;;9.00;4.90;;;;;;;11.66;75.38;101945.22;5096079;28;20359;-65
2022/05/14 01:13:01;;;;;;;13.98;4.93;;;;;;;11.59;75.06;101930.41;5095744;28;20515;-66
2022/05/14 01:15:48;;;;;;;12.25;5.00;;;;;;;11.63;74.74;101961.84;5098419;28;20454;-66
2022/05/14 01:18:14;;;;;;;11.73;5.10;;;;;;;11.66;75.05;101953.09;5098846;28;20098;-65
2022/05/14 01:20:39;;;;;;;11.68;5.03;;;;;;;11.61;75.02;101955.72;5098641;28;20046;-64
2022/05/14 01:23:20;;;;;;;11.45;4.68;;;;;;;11.57;74.97;101951.38;5098631;28;20040;-65
2022/05/14 01:28:41;;;;;;;10.70;4.22;;;;;;;11.46;74.85;101951.34;5098799;28;20101;-65
2022/05/14 01:31:07;;;;;;;11.52;4.20;;;;;;;11.50;74.51;101945.22;5098517;28;20431;-65
2022/05/14 01:33:33;;;;;;;8.27;4.03;;;;;;;11.45;74.87;101941.72;5098415;28;20035;-65
2022/05/14 01:36:00;;;;;;;11.10;4.47;;;;;;;11.39;75.09;101944.38;5098669;28;20028;-66
2022/05/14 01:38:26;;;;;;;10.18;3.90;;;;;;;11.36;74.44;101951.34;5098403;28;20312;-66
2022/05/14 01:40:51;;;;;;;9.75;3.70;;;;;;;11.33;74.60;101952.22;5098336;28;20032;-65
2022/05/14 01:43:17;;;;;;;10.93;4.30;;;;;;;11.35;74.19;101945.22;5098195;28;20056;-66
2022/05/14 01:45:43;;;;;;;9.15;3.70;;;;;;;11.37;73.76;101940.88;5097754;28;20036;-66
2022/05/14 01:48:08;;;;;;;10.85;4.05;;;;;;;11.32;73.60;101947.84;5098360;28;20363;-66
2022/05/14 01:50:34;;;;;;;11.55;4.10;;;;;;;11.30;73.58;101952.19;5098110;28;20107;-65
2022/05/14 01:53:00;;;;;;;11.30;3.60;;;;;;;11.34;73.87;101951.34;5097787;28;20050;-64
2022/05/14 01:55:25;;;;;;;9.90;3.70;;;;;;;11.22;73.07;101955.69;5097829;28;20028;-65
2022/05/14 01:57:52;;;;;;;9.13;3.90;;;;;;;11.24;73.19;101954.84;5098228;28;20484;-65
2022/05/14 02:00:18;;;;;;;10.45;3.30;;;;;;;11.25;73.10;101963.56;5098034;28;20169;-65
2022/05/14 02:02:43;;;;;;;11.30;3.63;;;;;;;11.21;73.62;101960.06;5094349;28;20032;-65
2022/05/14 02:05:09;;;;;;;10.55;3.70;;;;;;;11.23;73.06;101960.06;5098080;28;20032;-65
2022/05/14 02:07:34;;;;;;;7.15;3.90;;;;;;;11.00;73.35;101920.72;5097825;28;20124;-65
2022/05/14 02:09:59;;;;;;;9.77;3.33;;;;;;;11.08;73.26;101959.13;5097692;28;20024;-65
2022/05/14 02:12:25;;;;;;;9.85;3.58;;;;;;;11.10;73.53;101951.28;5097846;28;20031;-65
2022/05/14 02:14:50;;;;;;;11.35;3.67;;;;;;;11.06;73.60;101944.31;5097709;28;20317;-64
2022/05/14 02:17:16;;;;;;;11.82;3.83;;;;;;;11.11;73.02;101950.41;5079831;28;20043;-66
2022/05/14 02:19:41;;;;;;;9.20;3.75;;;;;;;11.12;73.49;101953.03;5097399;28;20036;-65
2022/05/14 02:22:06;;;;;;;7.45;3.40;;;;;;;11.01;73.25;101940.81;5096520;28;20028;-66
2022/05/14 02:24:33;;;;;;;10.38;3.70;;;;;;;11.02;73.76;101950.41;5097169;28;20024;-66
2022/05/14 02:26:59;;;;;;;8.60;3.80;;;;;;;10.97;73.18;101957.38;5097392;28;20035;-65
2022/05/14 02:29:24;;;;;;;7.57;3.38;;;;;;;11.01;73.43;101961.75;5111471;28;20084;-65
2022/05/14 02:31:50;;;;;;;9.35;3.40;;;;;;;10.98;73.65;101964.38;5117418;28;20059;-65
2022/05/14 02:34:16;;;;;;;10.27;3.53;;;;;;;10.98;73.46;101959.13;5117638;28;20023;-65
2022/05/14 02:36:42;;;;;;;7.45;3.60;;;;;;;10.91;73.72;101949.53;5117522;28;20046;-65
2022/05/14 02:39:07;;;;;;;8.88;3.53;;;;;;;10.89;73.55;101953.88;5117617;28;20295;-65
2022/05/14 02:41:32;;;;;;;7.78;3.35;;;;;;;10.93;73.47;101964.34;5117491;28;20114;-65
2022/05/14 02:43:57;;;;;;;10.30;3.75;;;;;;;10.87;74.29;101969.56;5117560;28;20024;-64
2022/05/14 02:46:24;;;;;;;8.38;3.40;;;;;;;10.86;74.07;101966.94;5117565;28;20042;-65
2022/05/14 02:48:49;;;;;;;8.88;3.25;;;;;;;10.76;73.64;101972.13;5117261;28;20027;-65
2022/05/14 02:51:14;;;;;;;8.43;3.47;;;;;;;10.74;73.81;101957.28;5117424;28;20381;-65
2022/05/14 02:53:40;;;;;;;9.38;3.70;;;;;;;10.68;73.94;101962.53;5117512;28;20351;-65
2022/05/14 02:56:05;;;;;;;10.55;3.70;;;;;;;10.66;74.06;101965.13;5117352;28;20024;-65
2022/05/14 03:01:14;;;;;;;7.43;3.40;;;;;;;10.69;73.97;101961.66;5117191;28;20035;-65
2022/05/14 03:03:39;;;;;;;10.45;4.22;;;;;;;10.64;74.44;101961.63;5117362;28;20035;-65
2022/05/14 03:06:05;;;;;;;11.50;3.13;;;;;;;10.63;74.21;101967.72;5117576;28;20043;-64
2022/05/14 03:08:30;;;;;;;9.15;3.88;;;;;;;10.57;74.54;101965.06;5117321;28;20316;-65
2022/05/14 03:10:56;;;;;;;9.25;3.72;;;;;;;10.61;74.42;101971.19;5116967;28;20081;-66
2022/05/14 03:13:21;;;;;;;8.30;3.45;;;;;;;10.53;73.90;101963.34;5117237;28;20039;-65
2022/05/14 03:15:46;;;;;;;10.63;3.70;;;;;;;10.51;74.50;101966.81;5116956;28;20337;-65
2022/05/14 03:18:11;;;;;;;8.82;3.80;;;;;;;10.48;74.58;101959.81;5116804;28;20043;-66
2022/05/14 03:20:37;;;;;;;7.57;3.33;;;;;;;10.52;74.85;101961.59;5116488;28;20032;-65
2022/05/14 03:23:02;;;;;;;6.63;3.20;;;;;;;10.48;75.22;101957.19;5117142;28;20032;-65
2022/05/14 03:25:28;;;;;;;9.93;3.88;;;;;;;10.40;75.34;101957.13;5116950;28;20027;-64
2022/05/14 03:27:53;;;;;;;8.50;3.63;;;;;;;10.46;75.44;101954.56;5116829;28;20032;-65
2022/05/14 03:30:18;;;;;;;14.00;4.00;;;;;;;10.38;74.91;101961.53;5116134;28;20031;-65
2022/05/14 03:32:44;;;;;;;8.85;3.60;;;;;;;10.45;74.91;101958.06;5116390;28;20030;-66
2022/05/14 03:35:09;;;;;;;9.15;3.40;;;;;;;10.43;75.22;101972.84;5116663;28;20465;-65
2022/05/14 03:37:35;;;;;;;8.63;4.00;;;;;;;10.40;75.22;101969.34;5116396;28;20023;-65
2022/05/14 03:40:01;;;;;;;11.02;4.20;;;;;;;10.39;74.79;101962.41;5116323;28;20035;-64
2022/05/14 03:42:26;;;;;;;9.95;3.80;;;;;;;10.36;75.44;101967.59;5116413;28;20430;-64
2022/05/14 03:44:52;;;;;;;7.25;3.40;;;;;;;10.28;75.36;101959.69;5116493;28;20027;-65
2022/05/14 03:47:17;;;;;;;8.43;4.10;;;;;;;10.20;75.91;101947.47;5116387;28;20027;-65
2022/05/14 03:49:43;;;;;;;10.35;4.30;;;;;;;10.24;75.54;101962.28;5116171;28;20127;-65
2022/05/14 03:52:08;;;;;;;10.18;3.65;;;;;;;10.20;75.89;101966.66;5116675;28;20427;-65
2022/05/14 03:54:34;;;;;;;9.32;3.70;;;;;;;10.10;76.01;101949.97;5116123;28;20104;-65
2022/05/14 03:56:59;;;;;;;10.15;4.05;;;;;;;10.20;75.74;101971.88;5116207;28;20047;-65
2022/05/14 03:59:24;;;;;;;9.40;4.13;;;;;;;10.19;76.09;101964.91;5116280;28;20019;-65
2022/05/14 04:01:50;;;;;;;10.82;4.07;;;;;;;10.22;76.56;101962.28;5115796;28;20084;-65
2022/05/14 04:04:15;;;;;;;10.30;3.83;;;;;;;10.20;76.37;101964.03;5116099;28;20433;-65
2022/05/14 04:06:40;;;;;;;6.47;3.72;;;;;;;10.20;76.21;101966.66;5116040;28;20474;-65
2022/05/14 04:09:05;;;;;;;9.27;4.40;;;;;;;10.27;76.12;101967.53;5115851;28;20050;-65
2022/05/14 04:11:31;;;;;;;9.65;4.03;;;;;;;10.16;76.55;101958.72;5116200;28;20411;-66
2022/05/14 04:13:57;;;;;;;10.90;4.45;;;;;;;10.19;76.32;101966.63;5115824;28;20107;-65
2022/05/14 04:16:22;;;;;;;9.05;4.25;;;;;;;10.25;76.57;101967.53;5115658;28;20027;-65
2022/05/14 04:18:48;;;;;;;9.98;4.40;;;;;;;10.08;76.63;101958.66;5115386;28;20024;-65
2022/05/14 04:21:13;;;;;;;7.13;3.78;;;;;;;10.16;76.64;101984.88;5115880;28;20482;-65
2022/05/14 04:23:38;;;;;;;9.75;4.07;;;;;;;10.21;76.43;101983.22;5115824;28;20488;-66
2022/05/14 04:26:04;;;;;;;9.95;4.65;;;;;;;10.16;77.40;101979.66;5115525;28;20047;-65
2022/05/14 04:28:29;;;;;;;12.43;4.20;;;;;;;10.15;77.19;101980.50;5115221;28;20343;-65
2022/05/14 04:30:55;;;;;;;10.10;4.32;;;;;;;10.10;77.51;101970.91;5115401;28;20039;-65
2022/05/14 04:33:21;;;;;;;11.02;4.57;;;;;;;10.10;77.62;101980.47;5115873;28;20031;-65
2022/05/14 04:35:46;;;;;;;10.23;4.40;;;;;;;10.15;77.74;101977.91;5115678;28;20036;-66
2022/05/14 04:38:13;;;;;;;7.80;4.55;;;;;;;10.05;78.00;101966.47;5115715;28;20059;-65
2022/05/14 04:40:39;;;;;;;9.18;4.22;;;;;;;10.15;78.39;101972.66;5115351;28;20038;-65
2022/05/14 04:43:06;;;;;;;10.60;3.97;;;;;;;10.24;78.06;101983.22;5115537;28;20051;-64
2022/05/14 04:45:31;;;;;;;11.80;4.10;;;;;;;10.25;78.12;101980.59;5118864;28;20460;-65
2022/05/14 04:47:56;;;;;;;10.43;4.57;;;;;;;10.30;78.28;101983.25;5122183;28;20063;-66
2022/05/14 04:50:22;;;;;;;8.10;4.50;;;;;;;10.30;77.85;101983.25;5116946;28;20144;-65
2022/05/14 04:52:47;;;;;;;10.23;4.80;;;;;;;10.35;77.92;101989.41;5101592;28;20120;-65
2022/05/14 04:55:13;;;;;;;11.18;4.82;;;;;;;10.37;77.91;101985.94;5101957;28;20131;-66
2022/05/14 04:57:40;;;;;;;12.75;4.80;;;;;;;10.36;77.54;101984.19;5101661;28;20028;-65
2022/05/14 05:00:07;;;;;;;13.05;5.43;;;;;;;10.36;78.07;101988.53;5101729;28;20415;-65
2022/05/14 05:05:18;;;;;;;10.75;5.43;;;;;;;10.34;78.25;101979.81;5101704;28;20402;-64
2022/05/14 05:07:43;;;;;;;14.95;5.00;;;;;;;10.41;78.13;101986.78;5098590;28;20043;-65
2022/05/14 05:10:09;;;;;;;10.38;5.15;;;;;;;10.44;78.41;101998.16;5111277;28;20035;-65
2022/05/14 05:12:34;;;;;;;12.48;5.28;;;;;;;10.46;78.59;102006.91;5101597;28;20067;-65
2022/05/14 05:14:59;;;;;;;11.18;5.40;;;;;;;10.53;78.63;101994.75;5101225;28;20032;-65
2022/05/14 05:17:25;;;;;;;16.65;6.15;;;;;;;10.52;79.00;101990.38;5101396;28;20032;-66
2022/05/14 05:19:50;;;;;;;15.02;5.90;;;;;;;10.51;78.82;101993.84;5106617;28;20039;-65
2022/05/14 05:22:15;;;;;;;10.38;6.00;;;;;;;10.63;79.20;102012.22;5117278;28;20037;-66
2022/05/14 05:24:41;;;;;;;10.23;5.68;;;;;;;10.73;79.33;102000.06;5121323;28;20427;-65
2022/05/14 05:27:06;;;;;;;13.32;5.93;;;;;;;10.71;78.54;101996.56;5121456;28;20031;-66
2022/05/14 05:29:31;;;;;;;11.18;5.60;;;;;;;10.72;78.87;101998.31;5121346;28;20107;-64
2022/05/14 05:31:57;;;;;;;11.35;5.68;;;;;;;10.74;79.24;102002.66;5121497;28;20098;-67
2022/05/14 05:34:22;;;;;;;16.30;6.93;;;;;;;10.81;79.58;102012.31;5121672;28;20043;-66
2022/05/14 05:36:47;;;;;;;13.68;6.45;;;;;;;10.88;79.37;102009.72;5121543;28;20054;-65
2022/05/14 05:39:13;;;;;;;17.02;7.10;;;;;;;10.86;79.84;102017.59;5120952;28;20370;-65
2022/05/14 05:41:38;;;;;;;17.48;6.80;;;;;;;10.96;79.54;102015.84;5121702;28;20042;-65
2022/05/14 05:44:04;;;;;;;15.75;6.82;;;;;;;11.00;79.46;102012.38;5121206;28;20339;-66
2022/05/14 05:46:32;;;;;;;18.60;7.70;;;;;;;11.09;79.39;102012.41;5121429;28;20107;-65
2022/05/14 05:48:57;;;;;;;16.65;7.90;;;;;;;11.10;79.41;102022.88;5121392;28;20023;-65
2022/05/14 05:51:22;;;;;;;17.77;7.40;;;;;;;11.16;79.10;102016.81;5121501;28;20431;-66
2022/05/14 05:56:47;;;;;;;15.88;7.60;;;;;;;11.31;79.57;102021.22;5118673;28;20050;-66
2022/05/14 05:59:16;;;;;;;19.67;7.97;;;;;;;11.33;79.81;102020.34;5117113;28;20455;-65
2022/05/14 06:01:43;;;;;;;14.95;8.00;;;;;;;11.38;79.87;102013.38;5117883;28;20036;-62
2022/05/14 06:04:08;;;;;;;19.20;8.30;;;;;;;11.52;80.00;102023.88;5118067;28;20035;-65
2022/05/14 06:06:33;;;;;;;17.55;8.10;;;;;;;11.48;80.01;102007.25;5118132;28;20483;-65
2022/05/14 06:09:00;;;;;;;19.35;8.00;;;;;;;11.63;80.43;102019.50;5117967;28;20031;-65
2022/05/14 06:11:26;;;;;;;17.10;8.35;;;;;;;11.69;80.47;102021.28;5117790;28;20437;-66
2022/05/14 06:13:52;;;;;;;20.85;9.02;;;;;;;11.67;81.18;102020.41;5117439;28;20023;-65
2022/05/14 06:16:17;;;;;;;20.05;8.50;;;;;;;11.75;80.58;102024.78;5117952;28;20059;-65
2022/05/14 06:18:43;;;;;;;22.15;8.60;;;;;;;11.84;81.19;102029.19;5117883;28;20104;-65
2022/05/14 06:21:09;;;;;;;15.95;8.57;;;;;;;11.83;80.73;102028.31;5117764;28;20034;-65
2022/05/14 06:23:35;;;;;;;19.90;8.68;;;;;;;11.93;80.59;102025.72;5117657;28;20066;-65
2022/05/14 06:26:00;;;;;;;19.13;9.32;;;;;;;11.97;81.60;102030.06;5118039;28;20070;-64
2022/05/14 06:28:25;;;;;;;21.55;9.70;;;;;;;12.03;81.47;102028.31;5117640;28;20040;-65
2022/05/14 06:30:51;;;;;;;26.60;9.57;;;;;;;11.99;81.57;102030.94;5118275;28;20040;-64
2022/05/14 06:33:18;;;;;;;22.30;8.88;;;;;;;12.05;81.42;102039.69;5117673;28;20359;-65
2022/05/14 06:35:45;;;;;;;21.52;9.70;;;;;;;12.11;81.53;102044.06;5117380;28;20031;-65
2022/05/14 06:38:11;;;;;;;20.58;9.13;;;;;;;12.16;81.76;102048.41;5099296;28;20462;-65
2022/05/14 06:40:37;;;;;;;24.23;9.95;;;;;;;12.27;82.15;102045.81;5097254;28;20028;-65
2022/05/14 06:43:03;;;;;;;25.10;10.05;;;;;;;12.39;81.09;102050.16;5097064;28;20190;-65
2022/05/14 06:45:29;;;;;;;23.10;9.85;;;;;;;12.57;80.28;102044.88;5097037;28;20118;-64
2022/05/14 06:47:54;;;;;;;23.52;9.85;;;;;;;12.64;80.44;102051.81;5097785;28;20429;-65
2022/05/14 06:50:20;;;;;;;23.27;9.90;;;;;;;12.70;80.14;102053.56;5097194;28;20097;-65
2022/05/14 06:52:49;;;;;;;25.00;9.57;;;;;;;12.70;80.10;102051.81;5113903;28;20042;-66
2022/05/14 06:55:19;;;;;;;20.42;10.30;;;;;;;12.74;80.22;102053.56;5116712;28;20563;-64
2022/05/14 06:57:45;;;;;;;23.85;9.88;;;;;;;12.79;80.71;102051.81;5117237;28;20130;-65
2022/05/14 07:00:11;;;;;;;23.35;10.80;;;;;;;12.81;79.99;102050.03;5116792;28;20023;-65
2022/05/14 07:02:37;;;;;;;22.65;9.88;;;;;;;12.79;80.81;102038.69;5117480;28;20031;-65
2022/05/14 07:07:49;;;;;;;23.65;10.35;;;;;;;13.21;78.80;102052.53;5116621;28;20093;-65
2022/05/14 07:10:14;;;;;;;21.05;10.25;;;;;;;13.31;79.26;102046.38;5117338;28;20092;-65
2022/05/14 07:12:40;;;;;;;23.38;10.52;;;;;;;13.40;78.71;102040.16;5116790;28;20043;-64
2022/05/14 07:15:07;;;;;;;21.98;9.85;;;;;;;13.43;78.82;102050.66;5116847;28;20031;-65
2022/05/14 07:17:32;;;;;;;23.30;10.20;;;;;;;13.43;78.47;102056.81;5116995;28;20134;-63
2022/05/14 07:19:58;;;;;;;20.63;10.35;;;;;;;13.40;78.55;102055.94;5116629;28;20115;-64
2022/05/14 07:22:23;;;;;;;25.60;10.48;;;;;;;13.45;78.83;102068.19;5116633;28;20063;-64
2022/05/14 07:24:49;;;;;;;23.35;10.40;;;;;;;13.45;78.20;102057.66;5116358;28;20110;-63
2022/05/14 07:27:14;;;;;;;23.52;10.57;;;;;;;13.49;78.15;102051.53;5116724;28;20426;-59
2022/05/14 07:29:42;;;;;;;23.63;10.30;;;;;;;13.49;78.22;102058.53;5116731;28;20043;-64
2022/05/14 07:32:09;;;;;;;23.27;11.15;;;;;;;13.51;78.69;102054.97;5116433;28;20184;-65
2022/05/14 07:34:35;;;;;;;24.13;10.80;;;;;;;13.54;78.42;102054.09;5116393;28;20100;-64
2022/05/14 07:37:04;;;;;;;23.02;10.77;;;;;;;13.62;78.00;102059.31;5116369;28;20443;-64
2022/05/14 07:39:42;;;;;;;19.67;10.77;;;;;;;13.64;78.05;102050.53;5116401;28;20031;-65
2022/05/14 07:42:13;;;;;;;25.52;11.20;;;;;;;13.57;78.37;102036.53;5116426;28;20051;-64
2022/05/14 07:44:44;;;;;;;21.48;11.20;;;;;;;13.69;78.12;102051.38;5114015;28;20031;-64
2022/05/14 07:47:10;;;;;;;21.60;11.45;;;;;;;13.69;77.80;102040.84;5116133;28;20028;-64
2022/05/14 07:49:35;;;;;;;25.10;11.27;;;;;;;13.74;77.50;102041.69;5116104;28;20044;-64
2022/05/14 07:52:01;;;;;;;24.10;10.48;;;;;;;13.85;77.82;102055.63;5116292;28;20437;-65
2022/05/14 07:54:26;;;;;;;21.85;11.52;;;;;;;13.80;77.36;102049.53;5116237;28;20411;-64
2022/05/14 07:56:52;;;;;;;22.15;11.15;;;;;;;13.95;77.44;102056.44;5116311;28;20378;-64
2022/05/14 07:59:17;;;;;;;21.35;12.02;;;;;;;13.95;77.00;102045.91;5115870;28;20032;-65
2022/05/14 08:01:43;;;;;;;25.40;11.15;;;;;;;14.05;76.92;102058.09;5116115;28;20114;-64
2022/05/14 08:04:09;;;;;;;23.20;10.80;;;;;;;13.99;76.55;102030.97;5115855;28;20473;-65
2022/05/14 08:06:35;;;;;;;24.40;11.60;;;;;;;14.17;76.01;102062.41;5115797;28;20062;-65
2022/05/14 08:09:00;;;;;;;23.40;10.43;;;;;;;14.26;76.15;102051.78;5115959;28;20371;-64
2022/05/14 08:11:26;;;;;;;22.27;11.48;;;;;;;14.36;75.94;102050.81;5115968;28;20050;-64
2022/05/14 08:13:53;;;;;;;26.27;11.43;;;;;;;14.44;75.00;102053.41;5115794;28;20096;-65
2022/05/14 08:16:19;;;;;;;25.00;11.13;;;;;;;14.49;75.76;102046.34;5115328;28;20036;-64
2022/05/14 08:18:44;;;;;;;24.25;11.32;;;;;;;14.53;75.56;102043.66;5115492;28;20032;-65
2022/05/14 08:26:38;;;;;;;24.23;11.35;;;;;;;14.80;74.17;102050.38;5095255;28;20073;-65
2022/05/14 08:29:04;;;;;;;25.55;10.77;;;;;;;14.94;73.96;102040.53;5095414;28;20343;-64
2022/05/14 08:31:29;;;;;;;20.33;10.18;;;;;;;15.06;73.55;102043.94;5095912;28;20055;-66
2022/05/14 08:33:54;;;;;;;24.52;11.15;;;;;;;15.09;73.17;102039.47;5097294;28;20393;-65
2022/05/14 08:36:20;;;;;;;25.95;10.77;;;;;;;15.24;72.98;102047.16;5106278;28;20023;-65
2022/05/14 08:38:45;;;;;;;25.00;10.93;;;;;;;15.36;72.87;102055.81;5114996;28;20036;-64
2022/05/14 08:41:11;;;;;;;23.90;10.38;;;;;;;15.37;72.03;102052.28;5115442;28;20035;-64
2022/05/14 08:43:47;;;;;;;21.23;10.55;;;;;;;15.47;72.20;102052.13;5115317;28;20042;-65
2022/05/14 08:46:20;;;;;;;22.85;11.65;;;;;;;15.53;71.83;102052.06;5115454;28;20100;-64
2022/05/14 08:49:05;;;;;;;20.52;10.77;;;;;;;15.61;71.94;102047.56;5115488;28;20092;-64
2022/05/14 08:51:34;;;;;;;19.73;9.73;;;;;;;15.79;71.09;102049.03;5115361;28;20120;-65
2022/05/14 08:54:02;;;;;;;24.05;10.75;;;;;;;15.89;70.34;102052.44;5115239;28;20031;-65
2022/05/14 08:56:41;;;;;;;28.50;10.25;;;;;;;16.04;69.57;102046.00;5115269;28;20031;-64
2022/05/14 08:59:26;;;;;;;18.70;9.80;;;;;;;16.73;67.96;102045.66;5114957;28;20107;-64
2022/05/14 09:01:59;;;;;;;19.05;8.85;;;;;;;17.87;62.46;102033.44;5115215;28;20030;-65
2022/05/14 09:04:24;;;;;;;18.77;8.30;;;;;;;19.17;58.36;102027.25;5115382;28;20028;-64
2022/05/14 09:06:50;;;;;;;19.13;7.70;;;;;;;20.44;55.36;102028.38;5115090;28;20408;-64
2022/05/14 09:09:17;;;;;;;23.80;7.72;;;;;;;21.18;51.08;102031.84;5115208;28;20111;-65
2022/05/14 09:11:46;;;;;;;19.27;7.82;;;;;;;22.00;49.33;102033.91;5115099;28;20066;-64
2022/05/14 09:14:23;;;;;;;18.98;7.57;;;;;;;22.00;48.48;102033.03;5115350;28;20110;-65
2022/05/14 09:16:51;;;;;;;19.00;8.23;;;;;;;22.12;47.12;102029.88;5115176;28;20350;-65
2022/05/14 09:19:19;;;;;;;16.90;7.97;;;;;;;21.83;47.63;102031.91;5114952;28;20039;-64
2022/05/14 09:21:51;;;;;;;18.60;7.35;;;;;;;21.64;48.79;102032.75;5115004;28;20345;-64
2022/05/14 09:24:25;;;;;;;19.33;7.00;;;;;;;21.21;49.54;102045.09;5097273;28;20356;-64
2022/05/14 09:26:53;;;;;;;18.08;6.88;;;;;;;20.68;51.45;102039.06;5115267;28;20027;-65
2022/05/14 09:29:28;;;;;;;15.13;7.55;;;;;;;20.07;53.04;102031.44;5115116;28;20027;-64
2022/05/14 09:31:59;;;;;;;18.70;7.53;;;;;;;19.75;54.01;102024.53;5116566;28;20083;-65
2022/05/14 09:34:27;;;;;;;18.33;7.22;;;;;;;19.64;54.54;102029.31;5118726;28;20362;-64
2022/05/14 09:36:52;;;;;;;16.23;6.97;;;;;;;19.74;53.56;102027.25;5118652;28;20512;-64
2022/05/14 09:39:21;;;;;;;15.02;6.75;;;;;;;19.85;53.24;102034.88;5118873;28;20027;-64
2022/05/14 09:41:52;;;;;;;15.80;7.03;;;;;;;20.03;53.10;102028.94;5118842;28;20023;-64
2022/05/14 09:44:22;;;;;;;15.27;6.80;;;;;;;20.04;52.59;102020.03;5119393;28;20028;-64
2022/05/14 09:46:47;;;;;;;17.52;6.30;;;;;;;20.26;53.08;102018.38;5118690;28;20066;-64
2022/05/14 09:49:25;;;;;;;14.85;6.10;;;;;;;20.38;52.33;102017.13;5118572;28;20114;-64
2022/05/14 09:51:52;;;;;;;15.20;6.05;;;;;;;20.69;51.14;102022.19;5118681;28;20055;-64
2022/05/14 09:54:23;;;;;;;15.50;5.50;;;;;;;20.77;49.78;102028.13;5118587;28;20368;-64
2022/05/14 09:57:04;;;;;;;13.70;5.68;;;;;;;20.87;50.39;102020.66;5118354;28;20039;-64
2022/05/14 09:59:45;;;;;;;14.98;5.72;;;;;;;20.81;50.19;102021.72;5118551;28;20028;-65
2022/05/14 10:02:14;;;;;;;15.57;6.50;;;;;;;20.70;49.64;102021.28;5118431;28;20039;-64
2022/05/14 10:04:39;;;;;;;13.65;5.30;;;;;;;20.77;49.87;102025.47;5118348;28;20085;-64
2022/05/14 10:07:28;;;;;;;18.37;6.80;;;;;;;20.67;50.16;102019.59;5118349;28;20024;-64
2022/05/14 10:10:19;;;;;;;13.25;6.78;;;;;;;20.50;51.59;102033.50;5118383;28;20024;-64
2022/05/14 10:12:48;;;;;;;17.33;6.68;;;;;;;20.12;51.24;102024.16;5118403;28;20028;-65
2022/05/14 10:15:55;;;;;;;16.33;6.18;;;;;;;20.34;52.29;102026.09;5118121;28;20467;-65
2022/05/14 10:18:30;;;;;;;17.77;7.13;;;;;;;20.70;50.13;102029.25;5104259;28;20052;-64
2022/05/14 10:21:16;;;;;;;15.60;6.18;;;;;;;20.99;49.74;102028.16;5118123;28;20042;-65
2022/05/14 10:27:26;;;;;;;17.75;7.35;;;;;;;21.48;48.32;102025.34;5117958;28;20047;-63
2022/05/14 10:30:08;;;;;;;22.50;7.82;;;;;;;21.60;47.98;102028.47;5117728;28;20087;-64
2022/05/14 10:32:34;;;;;;;;;;;;;;;21.66;49.61;102023.75;5118066;28;20050;-64
2022/05/14 10:35:06;;;;;;;15.57;7.55;;;;;;;21.32;48.15;102026.88;5117788;28;19916;-64
2022/05/14 10:37:39;;;;;;;17.80;6.60;;;;;;;21.01;47.75;102019.19;5117914;28;20028;-64
2022/05/14 10:40:10;;;;;;;17.95;7.15;;;;;;;20.56;47.89;102020.91;5117677;28;20084;-63
2022/05/14 10:42:44;;;;;;;13.90;5.78;;;;;;;20.43;49.18;102026.66;5116807;28;20165;-64
2022/05/14 10:45:18;;;;;;;15.07;6.28;;;;;;;20.34;49.22;102026.09;5117539;28;20088;-64
2022/05/14 10:48:00;;;;;;;17.20;6.22;;;;;;;20.34;48.03;102018.97;5117629;28;20031;-64
2022/05/14 10:50:29;;;;;;;15.82;7.03;;;;;;;20.47;46.32;102022.09;5117316;28;20023;-64
2022/05/14 10:52:57;;;;;;;13.82;5.75;;;;;;;20.85;46.32;102031.34;5117151;28;20076;-64
2022/05/14 10:55:32;;;;;;;13.88;5.80;;;;;;;21.13;45.74;102028.50;5117166;28;20028;-64
2022/05/14 10:58:03;;;;;;;15.68;5.65;;;;;;;21.65;45.48;102034.44;5117337;28;20056;-64
2022/05/14 11:00:39;;;;;;;12.95;6.22;;;;;;;21.78;44.63;102025.06;5117155;28;20046;-64
2022/05/14 11:03:13;;;;;;;16.38;5.68;;;;;;;22.11;44.42;102021.00;5117138;28;20035;-65
2022/05/14 11:05:49;;;;;;;13.00;5.97;;;;;;;22.11;43.33;102017.47;5117421;28;20035;-63
2022/05/14 11:08:43;;;;;;;10.32;5.47;;;;;;;22.28;43.35;102027.41;5117026;28;20027;-64
2022/05/14 11:11:18;;;;;;;12.07;5.90;;;;;;;22.27;42.58;102018.53;5116609;28;20051;-64
2022/05/14 11:14:04;;;;;;;15.35;5.32;;;;;;;22.32;43.39;102024.56;5117043;28;20031;-62
2022/05/14 11:16:44;;;;;;;13.48;5.82;;;;;;;22.39;42.33;102027.78;5116988;28;20023;-63
2022/05/14 11:19:23;;;;;;;11.82;5.40;;;;;;;22.18;41.14;102018.91;5116790;28;20027;-64
2022/05/14 11:21:49;;;;;;;14.85;5.93;;;;;;;22.26;42.19;102016.81;5116778;28;20127;-65
2022/05/14 11:24:16;;;;;;;13.25;5.38;;;;;;;22.53;40.41;102030.72;5116598;28;20077;-63
2022/05/14 11:26:54;;;;;;;14.02;5.60;;;;;;;22.59;41.36;102022.44;5115874;28;20031;-63
2022/05/14 11:29:23;;;;;;;13.52;5.65;;;;;;;22.30;40.23;102017.53;5110334;28;20493;-63
2022/05/14 11:31:53;;;;;;;14.95;5.95;;;;;;;22.36;40.74;102019.94;5114925;28;20047;-64
2022/05/14 11:34:23;;;;;;;13.07;5.28;;;;;;;22.60;41.64;102018.84;5116571;28;20035;-63
2022/05/14 11:36:52;;;;;;;14.73;5.75;;;;;;;22.83;40.24;102015.19;5115398;28;20350;-63
2022/05/14 11:39:21;;;;;;;12.18;5.93;;;;;;;22.99;41.31;102016.19;5114828;28;20080;-61
2022/05/14 11:41:48;;;;;;;17.42;6.82;;;;;;;23.01;41.17;102016.13;5114747;28;20035;-62
2022/05/14 11:44:29;;;;;;;14.85;7.32;;;;;;;22.85;41.49;102013.31;5114943;28;20147;-63
2022/05/14 11:46:56;;;;;;;14.25;6.78;;;;;;;22.45;41.30;102014.19;5114930;28;20027;-64